Briefing drone pour Aurillac (LFLW)

Rechercher une autre localisation

Conditions de vol :


Nous sommes le : Samedi 03 décembre 2022
Il est 08:10 UTC (09:10 LT)

Lever de soleil : 06:43 UTC (07:43 LT)
Coucher de soleil : 16:36 UTC (17:36 LT)

Météo

L'essentiel des conditions de vol

VIGILANCE MÉTÉO FRANCE - Cantal (15)
Vigilance Jaune : Neige-verglas
CARTES DES FRONTS
METAR de LFLW
LFLW 030800Z AUTO 24002KT 4200 BR OVC019 01/01 Q1008 TEMPO BKN007

Date d'émission: 03/12/2022
Heure d'émission: 08:00 UTC
Vent: 240° pour 2 KT (4 km/h)
Visibilité horizontale: 4200 m
Plafond :
- Couvert à 1900ft (579m)
Température: 1 °C
Point de rosée: 1 °C
Humidité: 100%
Pression (QNH): 1008 hPa
Conditions: Brume

Temporairement:

Plafond :
- Nuages morcelés à 700ft (213m)
Prévision 24h pour Aurillac
Vent : 88° pour 1 KT (3 km/h)
Temperature Maxi: 3 °C
Temperature Min: 3 °C
Humidité : 99%
Condition : Légère pluie



Warning: count(): Parameter must be an array or an object that implements Countable in /homepages/6/d509196549/htdocs/droneoxygene/briefing.php on line 743
WEBCAM POUR AURILLAC

Réglementation

Voler en sécurité

CARTES AERONAUTIQUE 1/500.000
CARTE AZBA (Reseau basse altitude)
CARTES VAC (LFLW)
SUP AIP




Chargement des AIP...
NOTAM (AURILLAC + Terrain à proximité / FIR )




Chargement des NOTAMS...
CONTACT PREFECTURE 15


Avertissement : Les données mises à disposition sont indicatives. Oxygène Drone ne pourra être tenu responsable de dégâts causés aux biens et aux personnes.